createdAt,value
2022-07-26T00:01:52.629Z,20.50
2022-07-26T00:04:38.148Z,20.48
2022-07-26T00:07:23.684Z,20.55
2022-07-26T00:10:09.205Z,20.54
2022-07-26T00:12:54.295Z,20.53
2022-07-26T00:15:39.808Z,20.64
2022-07-26T00:18:25.474Z,20.62
2022-07-26T00:21:11.670Z,20.49
2022-07-26T00:23:57.496Z,20.41
2022-07-26T00:26:43.107Z,20.50
2022-07-26T00:29:28.042Z,20.54
2022-07-26T00:32:13.363Z,20.53
2022-07-26T00:34:58.878Z,20.43
2022-07-26T00:37:44.292Z,20.42
2022-07-26T00:40:29.680Z,20.42
2022-07-26T00:43:15.107Z,20.33
2022-07-26T00:46:00.879Z,20.33
2022-07-26T00:48:46.028Z,20.32
2022-07-26T00:51:31.359Z,20.38
2022-07-26T00:54:17.101Z,20.38
2022-07-26T00:57:03.290Z,20.45
2022-07-26T00:59:48.839Z,20.24
2022-07-26T01:02:34.402Z,20.23
2022-07-26T01:05:20.130Z,20.23
2022-07-26T01:08:05.170Z,20.09
2022-07-26T01:10:51.269Z,20.13
2022-07-26T01:13:36.692Z,20.15
2022-07-26T01:16:22.729Z,20.22
2022-07-26T01:19:08.185Z,20.10
2022-07-26T01:21:53.804Z,20.19
2022-07-26T01:24:39.019Z,20.03
2022-07-26T01:27:24.293Z,19.93
2022-07-26T01:30:11.628Z,19.98
2022-07-26T01:32:57.099Z,19.87
2022-07-26T01:35:42.404Z,19.82
2022-07-26T01:38:27.999Z,19.79
2022-07-26T01:41:13.186Z,19.56
2022-07-26T01:43:58.159Z,19.73
2022-07-26T01:46:43.622Z,19.84
2022-07-26T01:49:28.594Z,19.70
2022-07-26T01:52:13.867Z,19.54
2022-07-26T01:54:59.273Z,19.23
2022-07-26T01:57:45.985Z,19.08
2022-07-26T02:00:31.507Z,19.22
2022-07-26T02:03:16.834Z,19.12
2022-07-26T02:06:02.971Z,18.98
2022-07-26T02:08:48.581Z,18.75
2022-07-26T02:11:34.493Z,18.71
2022-07-26T02:14:26.049Z,18.70
2022-07-26T02:17:13.239Z,18.81
2022-07-26T02:19:58.573Z,18.61
2022-07-26T02:22:43.736Z,18.74
2022-07-26T02:25:29.374Z,18.78
2022-07-26T02:28:15.502Z,18.60
2022-07-26T02:31:00.708Z,18.64
2022-07-26T02:33:45.986Z,18.60
2022-07-26T02:36:30.770Z,18.44
2022-07-26T02:39:16.303Z,18.51
2022-07-26T02:42:03.396Z,18.50
2022-07-26T02:44:48.419Z,18.50
2022-07-26T02:47:33.972Z,18.35
2022-07-26T02:50:20.437Z,18.24
2022-07-26T02:53:05.537Z,18.22
2022-07-26T02:55:50.264Z,18.23
2022-07-26T02:58:36.276Z,18.18
2022-07-26T03:01:21.430Z,18.17
2022-07-26T03:04:06.654Z,18.13
2022-07-26T03:06:51.849Z,18.25
2022-07-26T03:09:36.661Z,18.08
2022-07-26T03:12:21.656Z,18.10
2022-07-26T03:15:06.812Z,18.08
2022-07-26T03:17:51.904Z,18.00
2022-07-26T03:20:37.393Z,18.08
2022-07-26T03:23:22.172Z,18.18
2022-07-26T03:26:07.082Z,18.29
2022-07-26T03:28:51.986Z,18.35
2022-07-26T03:31:37.052Z,18.31
2022-07-26T03:34:22.322Z,18.32
2022-07-26T03:37:07.247Z,18.28
2022-07-26T03:39:52.716Z,18.28
2022-07-26T03:42:37.672Z,18.42
2022-07-26T03:45:22.954Z,18.44
2022-07-26T03:48:07.670Z,18.37
2022-07-26T03:50:52.671Z,18.25
2022-07-26T03:53:37.616Z,18.36
2022-07-26T03:56:23.577Z,18.31
2022-07-26T03:59:10.576Z,18.40
2022-07-26T04:01:55.467Z,18.36
2022-07-26T04:04:40.797Z,18.41
2022-07-26T04:07:27.179Z,18.47
2022-07-26T04:10:13.447Z,18.56
2022-07-26T04:12:58.444Z,18.57
2022-07-26T04:15:43.276Z,18.52
2022-07-26T04:18:28.411Z,18.43
2022-07-26T04:21:13.359Z,18.48
2022-07-26T04:23:58.888Z,18.44
2022-07-26T04:26:44.152Z,18.52
2022-07-26T04:29:28.972Z,18.43
2022-07-26T04:32:13.889Z,18.36
2022-07-26T04:34:58.590Z,18.40
2022-07-26T04:37:44.988Z,18.52
2022-07-26T04:40:30.808Z,18.60
2022-07-26T04:43:16.278Z,18.52
2022-07-26T04:46:01.643Z,18.34
2022-07-26T04:48:46.810Z,18.45
2022-07-26T04:51:32.189Z,18.54
2022-07-26T04:54:17.305Z,18.52
2022-07-26T04:57:02.345Z,18.73
2022-07-26T04:59:58.122Z,18.63
2022-07-26T05:02:55.123Z,18.56
2022-07-26T05:05:40.359Z,18.60
2022-07-26T05:08:25.393Z,18.68
2022-07-26T05:11:10.496Z,18.67
2022-07-26T05:13:55.604Z,18.84
2022-07-26T05:16:44.352Z,18.72
2022-07-26T05:19:30.333Z,18.79
2022-07-26T05:22:15.941Z,18.91
2022-07-26T05:25:00.817Z,19.07
2022-07-26T05:27:45.642Z,18.93
2022-07-26T05:30:30.608Z,18.96
2022-07-26T05:33:16.577Z,19.16
2022-07-26T05:36:01.969Z,19.09
2022-07-26T05:38:46.695Z,19.21
2022-07-26T05:41:31.845Z,19.31
2022-07-26T05:44:16.704Z,19.27
2022-07-26T05:47:03.727Z,19.10
2022-07-26T05:49:48.970Z,19.14
2022-07-26T05:52:33.896Z,19.00
2022-07-26T05:55:18.916Z,18.92
2022-07-26T05:58:03.870Z,18.81
2022-07-26T06:00:48.744Z,18.76
2022-07-26T06:03:34.011Z,18.93
2022-07-26T06:06:19.032Z,19.05
2022-07-26T06:09:04.092Z,19.04
2022-07-26T06:11:49.136Z,19.07
2022-07-26T06:14:34.445Z,19.19
2022-07-26T06:17:19.459Z,19.41
2022-07-26T06:20:04.997Z,19.60
2022-07-26T06:22:49.849Z,19.39
2022-07-26T06:25:35.284Z,19.31
2022-07-26T06:28:20.420Z,19.52
2022-07-26T06:31:05.782Z,19.63
2022-07-26T06:33:50.685Z,19.76
2022-07-26T06:36:35.488Z,19.59
2022-07-26T06:39:20.527Z,19.62
2022-07-26T06:42:05.594Z,19.57
2022-07-26T06:44:50.517Z,19.40
2022-07-26T06:47:35.339Z,19.37
2022-07-26T06:50:25.521Z,19.33
2022-07-26T06:53:11.255Z,19.21
2022-07-26T06:55:56.123Z,19.26
2022-07-26T06:58:42.304Z,19.23
2022-07-26T07:01:58.138Z,19.36
2022-07-26T07:04:33.392Z,19.36
2022-07-26T07:07:18.627Z,19.24
2022-07-26T07:10:05.011Z,19.18
2022-07-26T07:12:51.261Z,19.28
2022-07-26T07:15:36.234Z,19.41
2022-07-26T07:18:21.358Z,19.24
2022-07-26T07:21:06.889Z,19.36
2022-07-26T07:23:52.123Z,19.50
2022-07-26T07:26:37.389Z,19.64
2022-07-26T07:29:22.297Z,19.67
2022-07-26T07:32:07.639Z,19.68
2022-07-26T07:35:01.000Z,19.69
2022-07-26T07:37:53.539Z,19.68
2022-07-26T07:40:39.167Z,19.38
2022-07-26T07:43:24.140Z,19.35
2022-07-26T07:46:08.847Z,19.49
2022-07-26T07:48:53.757Z,19.86
2022-07-26T07:51:39.015Z,19.82
2022-07-26T07:54:23.798Z,19.95
2022-07-26T07:57:10.271Z,20.17
2022-07-26T07:59:56.086Z,20.48
2022-07-26T08:02:41.139Z,20.95
2022-07-26T08:05:26.676Z,21.14
2022-07-26T08:08:11.844Z,20.84
2022-07-26T08:10:59.343Z,20.84
2022-07-26T08:13:47.724Z,21.51
2022-07-26T08:16:33.415Z,22.11
2022-07-26T08:19:18.386Z,22.27
2022-07-26T08:22:04.829Z,21.80
2022-07-26T08:24:50.575Z,21.91
2022-07-26T08:27:40.912Z,22.74
2022-07-26T08:30:26.261Z,22.51
2022-07-26T08:33:11.144Z,22.54
2022-07-26T08:35:58.621Z,22.32
2022-07-26T08:38:44.893Z,22.33
2022-07-26T08:41:32.843Z,22.49
2022-07-26T08:44:17.834Z,23.22
2022-07-26T08:47:03.296Z,23.31
2022-07-26T08:49:48.389Z,22.97
2022-07-26T08:52:33.462Z,23.72
2022-07-26T08:55:20.658Z,24.62
2022-07-26T08:58:05.787Z,24.30
2022-07-26T09:01:11.217Z,23.60
2022-07-26T09:03:56.320Z,24.03
2022-07-26T09:06:57.477Z,24.75
2022-07-26T09:09:54.533Z,24.89
2022-07-26T09:12:40.512Z,25.05
2022-07-26T09:15:27.791Z,24.80
2022-07-26T09:18:27.703Z,24.29
2022-07-26T09:21:33.344Z,23.97
2022-07-26T09:24:32.388Z,24.43
2022-07-26T09:27:18.392Z,24.93
2022-07-26T09:30:08.609Z,26.13
2022-07-26T09:32:59.644Z,26.13
2022-07-26T09:36:04.813Z,25.24
2022-07-26T09:38:56.061Z,24.64
2022-07-26T09:41:41.226Z,23.81
2022-07-26T09:44:26.401Z,23.52
2022-07-26T09:47:11.512Z,22.64
2022-07-26T09:50:15.333Z,22.47
2022-07-26T09:53:00.635Z,22.03
2022-07-26T09:55:45.468Z,21.81
2022-07-26T09:58:31.387Z,21.80
2022-07-26T10:01:16.542Z,21.60
2022-07-26T10:04:03.605Z,21.37
2022-07-26T10:06:49.140Z,21.18
2022-07-26T10:09:55.144Z,21.16
2022-07-26T10:12:40.637Z,20.92
2022-07-26T10:15:36.574Z,20.86
2022-07-26T10:18:36.943Z,20.73
2022-07-26T10:21:31.706Z,20.67
2022-07-26T10:24:26.257Z,20.55
2022-07-26T10:27:37.019Z,20.56
2022-07-26T10:30:33.592Z,20.51
2022-07-26T10:33:24.297Z,20.31
2022-07-26T10:36:30.806Z,19.75
2022-07-26T10:39:16.127Z,19.72
2022-07-26T10:42:07.650Z,19.39
2022-07-26T10:45:19.566Z,19.31
2022-07-26T10:48:21.562Z,19.68
2022-07-26T10:51:25.036Z,19.69
2022-07-26T10:54:12.775Z,19.52
2022-07-26T10:56:58.213Z,19.70
2022-07-26T10:59:55.840Z,19.67
2022-07-26T11:02:42.016Z,20.02
2022-07-26T11:05:32.514Z,20.88
2022-07-26T11:08:17.765Z,21.66
2022-07-26T11:11:02.510Z,22.43
2022-07-26T11:13:47.511Z,22.16
2022-07-26T11:16:38.441Z,20.89
2022-07-26T11:19:24.281Z,21.43
2022-07-26T11:22:09.496Z,21.52
2022-07-26T11:24:56.443Z,21.30
2022-07-26T11:28:00.644Z,21.17
2022-07-26T11:30:59.660Z,21.20
2022-07-26T11:33:47.238Z,21.10
2022-07-26T11:36:44.270Z,20.91
2022-07-26T11:39:33.001Z,20.54
2022-07-26T11:42:19.500Z,20.71
2022-07-26T11:45:09.272Z,20.48
2022-07-26T11:47:57.837Z,20.15
2022-07-26T11:50:42.822Z,20.17
2022-07-26T11:53:28.113Z,19.86
2022-07-26T11:56:15.672Z,19.95
2022-07-26T11:59:01.161Z,20.13
2022-07-26T12:01:49.863Z,20.28
2022-07-26T12:04:37.878Z,20.44
2022-07-26T12:07:23.161Z,20.36
2022-07-26T12:10:08.156Z,20.36
2022-07-26T12:13:15.387Z,20.30
2022-07-26T12:16:00.638Z,20.32
2022-07-26T12:18:51.216Z,20.15
2022-07-26T12:22:07.913Z,20.24
2022-07-26T12:24:58.273Z,20.52
2022-07-26T12:27:46.511Z,20.51
2022-07-26T12:30:35.562Z,20.65
2022-07-26T12:33:20.853Z,20.70
2022-07-26T12:36:28.490Z,20.67
2022-07-26T12:39:21.449Z,20.68
2022-07-26T12:42:33.324Z,20.79
2022-07-26T12:45:21.855Z,20.66
2022-07-26T12:48:08.833Z,20.72
2022-07-26T12:50:53.986Z,20.78
2022-07-26T12:53:38.815Z,20.93
2022-07-26T12:56:23.680Z,20.94
2022-07-26T12:59:08.499Z,20.92
2022-07-26T13:01:53.430Z,21.02
2022-07-26T13:04:39.033Z,21.04
2022-07-26T13:07:24.115Z,21.02
2022-07-26T13:13:14.823Z,20.98
2022-07-26T13:15:59.898Z,20.93
2022-07-26T13:18:44.796Z,20.66
2022-07-26T13:21:33.427Z,20.72
2022-07-26T13:24:18.831Z,20.65
2022-07-26T13:27:06.824Z,20.84
2022-07-26T13:29:51.505Z,20.75
2022-07-26T13:32:36.501Z,20.79
2022-07-26T13:35:21.348Z,20.38
2022-07-26T13:38:06.230Z,20.06
2022-07-26T13:40:54.223Z,20.07
2022-07-26T13:43:39.650Z,19.97
2022-07-26T13:46:26.433Z,19.93
2022-07-26T13:49:13.452Z,20.04
2022-07-26T13:51:58.672Z,20.06
2022-07-26T13:54:43.767Z,20.04
2022-07-26T13:57:49.098Z,19.96
2022-07-26T14:00:33.755Z,20.05
2022-07-26T14:03:19.376Z,20.13
2022-07-26T14:06:04.598Z,20.19
2022-07-26T14:08:49.581Z,20.22
2022-07-26T14:11:35.156Z,20.09
2022-07-26T14:14:20.786Z,20.17
2022-07-26T14:17:05.809Z,19.94
2022-07-26T14:19:51.130Z,19.97
2022-07-26T14:22:36.670Z,20.00
2022-07-26T14:25:26.858Z,19.98
2022-07-26T14:28:11.975Z,19.69
2022-07-26T14:30:57.175Z,19.52
2022-07-26T14:33:42.074Z,19.51
2022-07-26T14:36:27.218Z,19.59
2022-07-26T14:39:12.129Z,19.56
2022-07-26T14:41:57.924Z,19.51
2022-07-26T14:44:44.509Z,19.58
2022-07-26T14:47:29.597Z,19.63
2022-07-26T14:50:14.981Z,19.70
2022-07-26T14:52:59.976Z,19.82
2022-07-26T14:55:44.826Z,19.78
2022-07-26T14:58:29.647Z,19.99
2022-07-26T15:01:14.601Z,20.05
2022-07-26T15:03:59.922Z,20.06
2022-07-26T15:06:45.381Z,19.96
2022-07-26T15:09:30.347Z,19.89
2022-07-26T15:12:15.264Z,19.78
2022-07-26T15:15:00.108Z,19.80
2022-07-26T15:17:45.070Z,19.82
2022-07-26T15:20:29.872Z,19.68
2022-07-26T15:23:14.819Z,19.75
2022-07-26T15:25:59.786Z,20.00
2022-07-26T15:28:44.642Z,19.91
2022-07-26T15:31:37.223Z,19.92
2022-07-26T15:34:22.974Z,19.82
2022-07-26T15:37:07.950Z,20.13
2022-07-26T15:39:53.059Z,20.24
2022-07-26T15:42:43.408Z,20.28
2022-07-26T15:45:30.108Z,20.50
2022-07-26T15:48:22.391Z,20.64
2022-07-26T15:51:07.691Z,20.75
2022-07-26T15:53:53.954Z,20.66
2022-07-26T15:56:39.160Z,20.65
2022-07-26T15:59:24.057Z,20.02
2022-07-26T16:02:09.524Z,19.80
2022-07-26T16:04:55.038Z,20.05
2022-07-26T16:07:40.969Z,20.17
2022-07-26T16:10:25.894Z,20.24
2022-07-26T16:13:11.229Z,20.20
2022-07-26T16:15:56.105Z,20.38
2022-07-26T16:18:41.929Z,20.35
2022-07-26T16:21:27.268Z,20.48
2022-07-26T16:24:12.218Z,20.62
2022-07-26T16:26:57.421Z,20.49
2022-07-26T16:29:42.601Z,20.29
2022-07-26T16:32:27.602Z,20.33
2022-07-26T16:35:13.156Z,20.54
2022-07-26T16:37:58.289Z,20.49
2022-07-26T16:40:43.565Z,20.65
2022-07-26T16:43:28.747Z,20.60
2022-07-26T16:46:14.192Z,20.40
2022-07-26T16:48:59.598Z,20.47
2022-07-26T16:51:45.104Z,20.46
2022-07-26T16:54:30.067Z,20.50
2022-07-26T16:57:15.246Z,20.56
2022-07-26T17:00:00.604Z,20.53
2022-07-26T17:02:45.611Z,20.15
2022-07-26T17:05:30.895Z,20.06
2022-07-26T17:08:16.130Z,20.07
2022-07-26T17:11:01.558Z,20.11
2022-07-26T17:13:46.726Z,20.11
2022-07-26T17:16:31.924Z,20.19
2022-07-26T17:19:16.842Z,20.26
2022-07-26T17:22:02.287Z,20.26
2022-07-26T17:24:48.477Z,20.25
2022-07-26T17:27:33.768Z,20.16
2022-07-26T17:30:18.828Z,20.35
2022-07-26T17:33:03.891Z,20.38
2022-07-26T17:35:49.024Z,20.43
2022-07-26T17:38:34.421Z,20.40
2022-07-26T17:41:19.567Z,20.38
2022-07-26T17:44:05.249Z,20.36
2022-07-26T17:46:50.829Z,20.36
2022-07-26T17:49:35.961Z,20.50
2022-07-26T17:52:21.339Z,20.28
2022-07-26T17:55:07.084Z,20.19
2022-07-26T17:57:52.385Z,20.11
2022-07-26T18:00:37.766Z,20.08
2022-07-26T18:03:23.035Z,20.06
2022-07-26T18:06:08.780Z,20.12
2022-07-26T18:08:53.916Z,19.98
2022-07-26T18:11:39.782Z,19.96
2022-07-26T18:14:25.195Z,19.79
2022-07-26T18:17:10.627Z,19.75
2022-07-26T18:19:55.476Z,19.71
2022-07-26T18:22:40.906Z,19.74
2022-07-26T18:25:26.295Z,19.73
2022-07-26T18:28:11.383Z,19.64
2022-07-26T18:30:56.505Z,19.70
2022-07-26T18:33:41.706Z,19.18
2022-07-26T18:36:26.740Z,19.22
2022-07-26T18:39:12.591Z,19.26
2022-07-26T18:41:58.056Z,18.95
2022-07-26T18:44:43.369Z,19.02
2022-07-26T18:47:28.787Z,19.20
2022-07-26T18:50:16.982Z,19.24
2022-07-26T18:53:02.352Z,19.23
2022-07-26T18:55:47.590Z,19.19
2022-07-26T18:58:32.845Z,19.19
2022-07-26T19:01:17.900Z,19.16
2022-07-26T19:04:06.859Z,19.14
2022-07-26T19:06:52.926Z,19.10
2022-07-26T19:09:38.031Z,18.99
2022-07-26T19:12:23.510Z,18.75
2022-07-26T19:15:09.114Z,18.83
2022-07-26T19:17:54.244Z,18.81
2022-07-26T19:20:39.582Z,18.76
2022-07-26T19:23:25.191Z,18.78
2022-07-26T19:26:11.076Z,18.73
2022-07-26T19:28:55.854Z,18.52
2022-07-26T19:31:41.451Z,18.33
2022-07-26T19:34:26.727Z,18.35
2022-07-26T19:37:12.139Z,18.42
2022-07-26T19:39:57.145Z,18.34
2022-07-26T19:42:42.570Z,18.09
2022-07-26T19:45:27.984Z,18.16
2022-07-26T19:48:13.369Z,18.05
2022-07-26T19:50:58.813Z,17.96
2022-07-26T19:53:44.199Z,17.86
2022-07-26T19:56:29.636Z,17.87
2022-07-26T19:59:19.487Z,18.02
2022-07-26T20:02:08.050Z,17.97
2022-07-26T20:04:53.480Z,18.00
2022-07-26T20:07:38.816Z,17.89
2022-07-26T20:10:27.304Z,17.82
2022-07-26T20:13:15.018Z,17.84
2022-07-26T20:16:00.456Z,17.88
2022-07-26T20:18:46.063Z,17.81
2022-07-26T20:21:31.286Z,17.85
2022-07-26T20:24:16.235Z,17.71
2022-07-26T20:27:01.562Z,17.68
2022-07-26T20:29:47.061Z,17.63
2022-07-26T20:32:32.511Z,17.59
2022-07-26T20:35:17.600Z,17.62
2022-07-26T20:38:02.569Z,17.60
2022-07-26T20:40:47.767Z,17.55
2022-07-26T20:43:33.231Z,17.55
2022-07-26T20:46:19.718Z,17.62
2022-07-26T20:49:06.300Z,17.59
2022-07-26T20:51:51.315Z,17.47
2022-07-26T20:54:36.763Z,17.41
2022-07-26T20:57:21.600Z,17.40
2022-07-26T21:00:09.304Z,17.39
2022-07-26T21:02:54.178Z,17.33
2022-07-26T21:05:39.594Z,17.33
2022-07-26T21:08:24.900Z,17.30
2022-07-26T21:11:09.800Z,17.37
2022-07-26T21:13:55.097Z,17.44
2022-07-26T21:16:40.647Z,17.47
2022-07-26T21:19:26.065Z,17.38
2022-07-26T21:22:11.553Z,17.28
2022-07-26T21:24:56.769Z,17.24
2022-07-26T21:27:42.250Z,17.29
2022-07-26T21:30:27.791Z,17.32
2022-07-26T21:33:13.601Z,17.21
2022-07-26T21:35:58.690Z,17.26
2022-07-26T21:38:44.266Z,17.16
2022-07-26T21:41:29.397Z,17.02
2022-07-26T21:44:15.924Z,17.07
2022-07-26T21:47:29.900Z,17.06
2022-07-26T21:50:17.771Z,17.13
2022-07-26T21:53:03.329Z,17.13
2022-07-26T21:55:48.617Z,17.01
2022-07-26T21:58:36.556Z,17.11
2022-07-26T22:01:22.052Z,17.15
2022-07-26T22:04:07.410Z,17.09
2022-07-26T22:06:52.570Z,16.94
2022-07-26T22:09:38.523Z,17.03
2022-07-26T22:12:23.834Z,17.02
2022-07-26T22:15:09.706Z,17.01
2022-07-26T22:17:55.100Z,16.98
2022-07-26T22:20:41.317Z,16.86
2022-07-26T22:23:27.123Z,16.80
2022-07-26T22:26:14.396Z,16.74
2022-07-26T22:28:59.698Z,16.73
2022-07-26T22:31:44.673Z,16.85
2022-07-26T22:34:30.025Z,16.93
2022-07-26T22:37:15.405Z,16.71
2022-07-26T22:40:00.507Z,16.80
2022-07-26T22:42:45.595Z,16.79
2022-07-26T22:45:31.719Z,16.77
2022-07-26T22:48:17.029Z,16.71
2022-07-26T22:51:07.600Z,16.61
2022-07-26T22:53:52.869Z,16.61
2022-07-26T22:56:39.654Z,16.67
2022-07-26T22:59:24.785Z,16.62
2022-07-26T23:02:10.203Z,16.59
2022-07-26T23:04:55.680Z,16.66
2022-07-26T23:07:42.612Z,16.58
2022-07-26T23:10:31.177Z,16.60
2022-07-26T23:13:16.579Z,16.58
2022-07-26T23:16:02.263Z,16.48
2022-07-26T23:18:47.203Z,16.54
2022-07-26T23:21:32.494Z,16.53
2022-07-26T23:24:17.931Z,16.52
2022-07-26T23:27:04.122Z,16.54
2022-07-26T23:29:49.210Z,16.52
2022-07-26T23:32:34.695Z,16.64
2022-07-26T23:35:19.575Z,16.68
2022-07-26T23:38:04.860Z,16.65
2022-07-26T23:40:50.146Z,16.57
2022-07-26T23:43:35.457Z,16.52
2022-07-26T23:46:21.619Z,16.41
2022-07-26T23:49:06.576Z,16.46
2022-07-26T23:51:52.270Z,16.55
2022-07-26T23:54:37.396Z,16.56
2022-07-26T23:57:22.877Z,16.56
